Time;durP1;ratioP1;P1;durP2;ratioP2;P2;SDS_P1;SDS_P2;PMS_P1;PMS_P2;Temp;Humidity;BMP_temperature;BMP_pressure;BME280_temperature;BME280_humidity;BME280_pressure;Samples;Min_cycle;Max_cycle;Signal;HPM_P1;HPM_P2
2021/11/03 00:01:01;;;;;;;16.63;12.17;;;5.70;99.90;;;;;;5067558;28;20453;-64
2021/11/03 00:03:28;;;;;;;13.27;11.87;;;5.80;99.90;;;;;;5066302;28;20862;-63
2021/11/03 00:05:55;;;;;;;11.50;10.30;;;5.90;99.90;;;;;;5058961;28;20473;-63
2021/11/03 00:08:26;;;;;;;12.77;11.47;;;5.90;99.90;;;;;;5064599;28;20470;-63
2021/11/03 00:10:54;;;;;;;13.43;11.33;;;5.90;99.90;;;;;;5068061;28;20474;-64
2021/11/03 00:13:24;;;;;;;12.13;10.83;;;5.90;99.90;;;;;;5067006;28;20475;-64
2021/11/03 00:15:52;;;;;;;15.43;11.50;;;5.90;99.90;;;;;;5068056;28;20546;-63
2021/11/03 00:18:19;;;;;;;12.90;11.60;;;5.90;99.90;;;;;;5067565;28;20970;-65
2021/11/03 00:20:47;;;;;;;12.13;10.93;;;5.90;99.90;;;;;;5066584;28;21242;-64
2021/11/03 00:23:14;;;;;;;10.80;9.80;;;6.00;99.90;;;;;;5066532;28;20446;-64
2021/11/03 00:25:45;;;;;;;10.90;9.77;;;6.00;99.90;;;;;;5066487;28;21005;-64
2021/11/03 00:28:12;;;;;;;12.60;11.20;;;6.00;99.90;;;;;;5066198;28;20451;-64
2021/11/03 00:30:41;;;;;;;10.70;8.70;;;6.10;99.90;;;;;;5066601;28;21183;-64
2021/11/03 00:33:08;;;;;;;10.93;9.10;;;6.10;99.90;;;;;;5053380;28;20818;-64
2021/11/03 00:35:34;;;;;;;12.90;10.10;;;6.10;99.90;;;;;;5060325;28;20547;-64
2021/11/03 00:38:01;;;;;;;11.63;9.37;;;6.20;99.90;;;;;;5054474;28;20453;-64
2021/11/03 00:40:28;;;;;;;12.17;9.77;;;6.30;99.90;;;;;;5067535;28;20538;-65
2021/11/03 00:42:55;;;;;;;10.50;9.47;;;6.30;99.90;;;;;;5070797;28;20474;-64
2021/11/03 00:45:22;;;;;;;10.00;9.00;;;6.40;99.90;;;;;;5065778;28;20463;-64
2021/11/03 00:47:50;;;;;;;13.50;11.80;;;6.40;99.90;;;;;;5071064;28;20450;-64
2021/11/03 00:50:18;;;;;;;11.40;8.60;;;6.40;99.90;;;;;;5071658;28;20494;-64
2021/11/03 00:52:45;;;;;;;10.50;8.27;;;6.40;99.90;;;;;;5071688;28;20455;-64
2021/11/03 00:55:12;;;;;;;11.60;9.47;;;6.50;99.90;;;;;;5071793;28;20473;-65
2021/11/03 00:57:38;;;;;;;10.40;9.30;;;6.50;99.90;;;;;;5071455;28;20455;-64
2021/11/03 01:00:08;;;;;;;11.20;9.17;;;6.60;99.90;;;;;;5071483;28;20461;-63
2021/11/03 01:02:35;;;;;;;9.97;8.60;;;6.60;99.90;;;;;;5071386;28;20916;-64
2021/11/03 01:05:06;;;;;;;11.20;9.33;;;6.70;99.90;;;;;;5066974;28;20467;-65
2021/11/03 01:07:33;;;;;;;10.50;9.33;;;6.70;99.90;;;;;;5068379;28;20446;-64
2021/11/03 01:10:00;;;;;;;13.57;9.07;;;6.70;99.90;;;;;;5071461;28;20485;-64
2021/11/03 01:12:26;;;;;;;9.57;8.57;;;6.60;99.90;;;;;;5070777;28;20449;-66
2021/11/03 01:14:53;;;;;;;9.83;8.83;;;6.70;99.90;;;;;;5071472;28;20467;-64
2021/11/03 01:17:20;;;;;;;11.53;8.07;;;6.70;99.90;;;;;;5070397;28;20542;-64
2021/11/03 01:19:47;;;;;;;10.57;9.40;;;6.70;99.90;;;;;;5071325;28;20470;-65
2021/11/03 01:22:15;;;;;;;9.60;8.60;;;6.70;99.90;;;;;;5055710;28;20444;-64
2021/11/03 01:24:42;;;;;;;9.77;8.67;;;6.80;99.90;;;;;;5061485;28;20842;-64
2021/11/03 01:27:09;;;;;;;9.03;8.20;;;6.80;99.90;;;;;;5058017;28;20436;-65
2021/11/03 01:29:36;;;;;;;9.70;7.93;;;6.80;99.90;;;;;;5061307;28;20482;-64
2021/11/03 01:32:03;;;;;;;9.87;8.50;;;6.80;99.90;;;;;;5061673;28;20442;-64
2021/11/03 01:34:29;;;;;;;11.57;10.37;;;6.80;99.90;;;;;;5058484;28;20548;-65
2021/11/03 01:36:56;;;;;;;10.03;8.87;;;6.80;99.90;;;;;;5055896;28;20443;-64
2021/11/03 01:39:24;;;;;;;8.23;7.37;;;6.70;99.90;;;;;;5068803;28;20446;-65
2021/11/03 01:41:51;;;;;;;9.80;8.20;;;6.70;99.90;;;;;;5064011;28;20453;-64
2021/11/03 01:44:19;;;;;;;9.73;7.80;;;6.70;99.90;;;;;;5070119;28;20471;-65
2021/11/03 01:46:51;;;;;;;9.43;7.93;;;6.70;99.90;;;;;;5070055;28;20439;-65
2021/11/03 01:49:20;;;;;;;9.80;8.83;;;6.70;99.90;;;;;;5070861;28;20479;-65
2021/11/03 01:51:51;;;;;;;8.90;8.00;;;6.80;99.90;;;;;;5069893;28;20473;-64
2021/11/03 01:54:21;;;;;;;10.10;9.00;;;6.80;99.90;;;;;;5070277;28;20473;-64
2021/11/03 01:56:50;;;;;;;12.37;8.97;;;6.80;99.90;;;;;;5070117;28;20937;-65
2021/11/03 01:59:23;;;;;;;9.20;8.37;;;6.80;99.90;;;;;;5070035;28;20948;-64
2021/11/03 02:01:50;;;;;;;9.80;8.80;;;6.80;99.90;;;;;;5070260;28;20446;-64
2021/11/03 02:04:18;;;;;;;11.60;10.10;;;6.70;99.90;;;;;;5068608;28;20465;-64
2021/11/03 02:06:45;;;;;;;10.63;9.53;;;6.70;99.90;;;;;;5066584;28;20447;-64
2021/11/03 02:09:13;;;;;;;12.87;10.63;;;6.70;99.90;;;;;;5063917;28;20875;-63
2021/11/03 02:11:40;;;;;;;11.63;9.97;;;6.70;99.90;;;;;;5070182;28;20572;-63
2021/11/03 02:14:09;;;;;;;12.60;11.00;;;6.70;99.90;;;;;;5069653;28;20451;-64
2021/11/03 02:16:38;;;;;;;11.77;10.10;;;6.70;99.90;;;;;;5069844;28;20457;-63
2021/11/03 02:19:12;;;;;;;12.43;10.20;;;6.70;99.90;;;;;;5070250;28;20461;-62
2021/11/03 02:21:48;;;;;;;12.47;10.90;;;6.70;99.90;;;;;;5063054;28;20991;-63
2021/11/03 02:24:23;;;;;;;13.90;9.67;;;6.70;99.90;;;;;;5069757;28;21011;-64
2021/11/03 02:26:52;;;;;;;12.43;11.20;;;6.70;99.90;;;;;;5069713;28;20456;-63
2021/11/03 02:29:22;;;;;;;11.33;9.93;;;6.70;99.90;;;;;;5069649;28;20487;-64
2021/11/03 02:31:52;;;;;;;12.27;11.00;;;6.70;99.90;;;;;;5069671;28;20447;-62
2021/11/03 02:34:21;;;;;;;15.70;10.70;;;6.70;99.90;;;;;;5067530;28;20485;-65
2021/11/03 02:36:55;;;;;;;11.50;10.30;;;6.70;99.90;;;;;;5058161;28;20439;-63
2021/11/03 02:39:27;;;;;;;14.50;9.87;;;6.70;99.90;;;;;;5069012;28;20445;-64
2021/11/03 02:41:55;;;;;;;9.00;8.10;;;6.70;99.90;;;;;;5069587;28;20451;-64
2021/11/03 02:44:27;;;;;;;7.73;6.93;;;6.70;99.90;;;;;;5069219;28;20999;-65
2021/11/03 02:46:54;;;;;;;12.10;9.90;;;6.70;99.90;;;;;;5068927;28;20504;-63
2021/11/03 02:49:21;;;;;;;10.27;9.13;;;6.80;99.90;;;;;;5056704;28;20755;-64
2021/11/03 02:51:47;;;;;;;11.97;10.77;;;6.80;99.90;;;;;;5069123;28;20447;-63
2021/11/03 02:54:17;;;;;;;12.53;8.53;;;6.70;99.90;;;;;;5069484;28;20832;-63
2021/11/03 02:56:48;;;;;;;9.70;8.70;;;6.80;99.90;;;;;;5068633;28;20446;-64
2021/11/03 02:59:20;;;;;;;10.30;8.20;;;6.80;99.90;;;;;;5069293;28;20459;-64
2021/11/03 03:01:48;;;;;;;10.30;8.80;;;6.80;99.90;;;;;;5068781;28;20451;-65
2021/11/03 03:04:18;;;;;;;11.43;9.70;;;6.80;99.90;;;;;;5067482;28;20463;-64
2021/11/03 03:06:46;;;;;;;10.23;8.87;;;6.70;99.90;;;;;;5061059;28;20443;-64
2021/11/03 03:09:13;;;;;;;12.07;8.43;;;6.70;99.90;;;;;;5068948;28;20478;-63
2021/11/03 03:11:46;;;;;;;9.30;7.30;;;6.70;99.90;;;;;;5066899;28;20458;-63
2021/11/03 03:14:16;;;;;;;8.77;7.07;;;6.70;99.90;;;;;;5050450;28;20485;-64
2021/11/03 03:16:43;;;;;;;9.93;7.53;;;6.80;99.90;;;;;;5049933;28;20448;-64
2021/11/03 03:19:11;;;;;;;10.77;8.13;;;6.80;99.90;;;;;;5049899;28;20444;-63
2021/11/03 03:21:38;;;;;;;9.50;7.40;;;6.80;99.90;;;;;;5050512;28;20450;-65
2021/11/03 03:24:08;;;;;;;10.20;8.73;;;6.90;99.90;;;;;;5050804;28;21277;-63
2021/11/03 03:26:36;;;;;;;7.90;7.10;;;6.80;99.90;;;;;;5050144;28;20447;-64
2021/11/03 03:29:03;;;;;;;9.10;7.40;;;6.90;99.90;;;;;;5050606;28;20444;-56
2021/11/03 03:31:32;;;;;;;8.20;7.40;;;6.80;99.90;;;;;;5050537;28;20479;-63
2021/11/03 03:34:02;;;;;;;9.07;6.70;;;6.80;99.90;;;;;;5050681;28;20440;-63
2021/11/03 03:36:29;;;;;;;8.50;6.67;;;6.80;99.90;;;;;;5050162;28;20868;-63
2021/11/03 03:38:57;;;;;;;8.23;7.43;;;6.70;99.90;;;;;;5050771;28;20450;-63
2021/11/03 03:41:26;;;;;;;5.50;4.90;;;6.80;99.90;;;;;;5050417;28;20621;-63
2021/11/03 03:43:53;;;;;;;8.23;6.63;;;6.80;99.90;;;;;;5050651;28;20480;-63
2021/11/03 03:46:22;;;;;;;8.70;6.33;;;6.80;99.90;;;;;;5050104;28;20448;-63
2021/11/03 03:48:51;;;;;;;6.50;5.80;;;6.80;99.90;;;;;;5050472;28;20470;-63
2021/11/03 03:51:18;;;;;;;9.37;7.30;;;6.80;99.90;;;;;;5050077;28;21017;-63
2021/11/03 03:53:46;;;;;;;8.73;6.80;;;6.80;99.90;;;;;;5050157;28;20448;-64
2021/11/03 03:56:14;;;;;;;7.93;6.50;;;6.80;99.90;;;;;;5049847;28;20499;-65
2021/11/03 03:58:41;;;;;;;6.03;5.37;;;6.80;99.90;;;;;;5050205;28;20878;-65
2021/11/03 04:01:08;;;;;;;5.43;3.83;;;6.70;99.90;;;;;;5050392;28;20579;-61
2021/11/03 04:03:35;;;;;;;5.40;4.90;;;6.70;99.90;;;;;;5050012;28;20447;-63
2021/11/03 04:06:03;;;;;;;8.60;5.50;;;6.70;99.90;;;;;;5050047;28;20468;-61
2021/11/03 04:08:30;;;;;;;8.53;6.70;;;6.70;99.90;;;;;;5048996;28;20454;-64
2021/11/03 04:10:59;;;;;;;10.47;8.00;;;6.80;99.90;;;;;;5049823;28;21174;-64
2021/11/03 04:13:26;;;;;;;9.20;7.67;;;6.80;99.90;;;;;;5049473;28;20981;-65
2021/11/03 04:15:54;;;;;;;8.10;7.30;;;6.80;99.90;;;;;;5049640;28;20464;-63
2021/11/03 04:18:21;;;;;;;9.83;8.03;;;6.70;99.90;;;;;;5049072;28;20454;-64
2021/11/03 04:20:48;;;;;;;10.00;8.30;;;6.70;99.90;;;;;;5050066;28;20826;-64
2021/11/03 04:23:18;;;;;;;9.83;8.77;;;6.80;99.90;;;;;;5049480;28;20460;-64
2021/11/03 04:25:46;;;;;;;12.23;9.17;;;6.70;99.90;;;;;;5049648;28;21006;-64
2021/11/03 04:28:13;;;;;;;11.97;10.40;;;6.80;99.90;;;;;;5049356;28;20444;-64
2021/11/03 04:30:40;;;;;;;10.63;8.67;;;6.80;99.90;;;;;;5049849;28;20503;-65
2021/11/03 04:33:08;;;;;;;10.20;8.60;;;6.80;99.90;;;;;;5049596;28;20448;-63
2021/11/03 04:35:36;;;;;;;8.20;7.33;;;6.80;99.90;;;;;;5049348;28;20467;-63
2021/11/03 04:38:04;;;;;;;12.93;8.87;;;6.80;99.90;;;;;;5049043;28;20471;-64
2021/11/03 04:40:33;;;;;;;12.40;10.20;;;6.80;99.90;;;;;;5049636;28;20581;-65
2021/11/03 04:43:00;;;;;;;11.27;8.13;;;6.80;99.90;;;;;;5049471;28;20829;-64
2021/11/03 04:45:28;;;;;;;9.03;8.10;;;6.90;99.90;;;;;;5049423;28;20470;-63
2021/11/03 04:47:55;;;;;;;10.70;9.13;;;7.00;99.90;;;;;;5048905;28;20436;-64
2021/11/03 04:50:25;;;;;;;9.13;7.10;;;7.00;99.90;;;;;;5049345;28;20479;-65
2021/11/03 04:52:52;;;;;;;8.70;7.80;;;7.00;99.90;;;;;;5049201;28;20976;-63
2021/11/03 04:55:19;;;;;;;9.57;8.20;;;7.00;99.90;;;;;;5049334;28;20559;-64
2021/11/03 04:57:47;;;;;;;9.40;7.47;;;7.00;99.90;;;;;;5048841;28;20447;-68
2021/11/03 05:00:19;;;;;;;10.30;9.30;;;7.00;99.90;;;;;;5049480;28;20442;-64
2021/11/03 05:02:46;;;;;;;10.67;8.53;;;6.90;99.90;;;;;;5049010;28;20444;-63
2021/11/03 05:05:13;;;;;;;8.77;7.67;;;6.90;99.90;;;;;;5049268;28;20460;-64
2021/11/03 05:07:41;;;;;;;14.23;8.70;;;6.80;99.90;;;;;;5048709;28;20473;-63
2021/11/03 05:10:08;;;;;;;9.10;8.17;;;6.80;99.90;;;;;;5049032;28;20546;-65
2021/11/03 05:12:35;;;;;;;9.93;8.33;;;6.70;99.90;;;;;;5049249;28;20452;-64
2021/11/03 05:15:04;;;;;;;10.63;8.70;;;6.70;99.90;;;;;;5049307;28;20490;-65
2021/11/03 05:17:30;;;;;;;9.60;8.60;;;6.70;99.90;;;;;;5048648;28;20444;-64
2021/11/03 05:19:57;;;;;;;9.77;8.80;;;6.70;99.90;;;;;;5049475;28;20444;-63
2021/11/03 05:22:26;;;;;;;11.20;8.27;;;6.70;99.90;;;;;;5049089;28;20978;-64
2021/11/03 05:24:53;;;;;;;10.03;8.93;;;6.70;99.90;;;;;;5049346;28;20848;-64
2021/11/03 05:27:20;;;;;;;10.50;8.57;;;6.70;99.90;;;;;;5049469;28;20454;-64
2021/11/03 05:29:47;;;;;;;9.07;7.83;;;6.70;99.90;;;;;;5052915;28;20930;-64
2021/11/03 05:32:15;;;;;;;10.90;9.20;;;6.80;99.90;;;;;;5052416;28;20483;-64
2021/11/03 05:34:42;;;;;;;12.80;9.27;;;6.80;99.90;;;;;;5053001;28;20475;-63
2021/11/03 05:37:11;;;;;;;8.80;7.50;;;6.80;99.90;;;;;;5051828;28;20448;-64
2021/11/03 05:39:38;;;;;;;9.77;8.77;;;6.80;99.90;;;;;;5052534;28;20474;-63
2021/11/03 05:42:05;;;;;;;11.57;9.40;;;6.80;99.90;;;;;;5052395;28;20535;-65
2021/11/03 05:44:32;;;;;;;10.50;8.07;;;6.90;99.90;;;;;;5052542;28;20563;-63
2021/11/03 05:46:59;;;;;;;8.43;7.63;;;6.80;99.90;;;;;;5051864;28;20449;-64
2021/11/03 05:49:31;;;;;;;8.20;7.40;;;6.80;99.90;;;;;;5052632;28;20889;-64
2021/11/03 05:51:59;;;;;;;9.70;7.60;;;6.90;99.90;;;;;;5051979;28;21027;-65
2021/11/03 05:54:27;;;;;;;10.37;8.20;;;6.90;99.90;;;;;;5052292;28;20554;-64
2021/11/03 05:56:55;;;;;;;8.03;7.10;;;6.90;99.90;;;;;;5051318;28;20444;-64
2021/11/03 05:59:23;;;;;;;8.50;6.90;;;6.90;99.90;;;;;;5052461;28;20450;-64
2021/11/03 06:01:50;;;;;;;8.97;7.10;;;6.90;99.90;;;;;;5051921;28;20448;-65
2021/11/03 06:04:17;;;;;;;8.57;6.57;;;6.90;99.90;;;;;;5052186;28;20468;-63
2021/11/03 06:06:45;;;;;;;6.63;5.83;;;6.90;99.90;;;;;;5051383;28;21114;-64
2021/11/03 06:09:12;;;;;;;7.73;6.17;;;6.90;99.90;;;;;;5052041;28;20447;-65
2021/11/03 06:11:47;;;;;;;12.20;8.80;;;6.90;99.90;;;;;;5051516;28;20505;-63
2021/11/03 06:14:14;;;;;;;8.60;7.80;;;7.00;99.90;;;;;;5052159;28;20459;-63
2021/11/03 06:16:40;;;;;;;9.40;7.00;;;6.90;99.90;;;;;;5051291;28;20444;-63
2021/11/03 06:19:08;;;;;;;12.57;7.27;;;6.90;99.90;;;;;;5052104;28;20451;-63
2021/11/03 06:21:35;;;;;;;8.20;6.27;;;6.80;99.90;;;;;;5051694;28;20436;-64
2021/11/03 06:24:03;;;;;;;7.60;6.30;;;6.90;99.90;;;;;;5051525;28;20443;-64
2021/11/03 06:26:30;;;;;;;7.87;6.43;;;6.80;99.90;;;;;;5051156;28;20451;-63
2021/11/03 06:28:57;;;;;;;6.43;5.00;;;6.80;99.90;;;;;;5051856;28;20444;-64
2021/11/03 06:31:24;;;;;;;6.83;5.90;;;6.80;99.90;;;;;;5051292;28;20476;-63
2021/11/03 06:33:51;;;;;;;6.87;5.17;;;6.90;99.90;;;;;;5051335;28;20447;-63
2021/11/03 06:36:18;;;;;;;5.73;5.13;;;6.90;99.90;;;;;;5050805;28;20452;-62
2021/11/03 06:38:47;;;;;;;7.30;5.00;;;6.90;99.90;;;;;;5050923;28;20448;-64
2021/11/03 06:41:16;;;;;;;5.73;5.13;;;7.00;99.90;;;;;;5050919;28;20956;-63
2021/11/03 06:43:43;;;;;;;5.13;4.63;;;7.00;99.90;;;;;;5051364;28;20454;-63
2021/11/03 06:46:11;;;;;;;6.10;5.40;;;7.10;99.90;;;;;;5051143;28;20471;-63
2021/11/03 06:48:38;;;;;;;8.60;7.07;;;7.20;99.90;;;;;;5050697;28;20439;-65
2021/11/03 06:51:05;;;;;;;5.97;5.37;;;7.20;99.90;;;;;;5051025;28;20525;-62
2021/11/03 06:53:33;;;;;;;5.63;4.40;;;7.20;99.90;;;;;;5050962;28;20948;-65
2021/11/03 06:56:00;;;;;;;7.10;4.40;;;7.20;99.90;;;;;;5050835;28;20471;-63
2021/11/03 06:58:29;;;;;;;5.40;4.10;;;7.20;99.90;;;;;;5050381;28;20448;-63
2021/11/03 07:00:57;;;;;;;6.53;4.90;;;7.20;99.90;;;;;;5051052;28;20444;-63
2021/11/03 07:03:25;;;;;;;10.20;4.80;;;7.30;99.90;;;;;;5050876;28;20829;-64
2021/11/03 07:05:53;;;;;;;8.80;6.30;;;7.40;99.90;;;;;;5050604;28;20495;-65
2021/11/03 07:08:21;;;;;;;7.07;5.77;;;7.40;99.90;;;;;;5050325;28;20440;-64
2021/11/03 07:10:50;;;;;;;11.07;7.77;;;7.50;99.90;;;;;;5050812;28;20868;-64
2021/11/03 07:13:18;;;;;;;9.40;6.40;;;7.60;99.90;;;;;;5050560;28;20447;-63
2021/11/03 07:15:48;;;;;;;9.50;5.93;;;7.60;99.90;;;;;;5050370;28;20468;-62
2021/11/03 07:18:15;;;;;;;8.03;6.17;;;7.60;99.90;;;;;;5049848;28;20961;-65
2021/11/03 07:20:43;;;;;;;9.70;6.40;;;7.60;99.90;;;;;;5050626;28;20440;-63
2021/11/03 07:23:11;;;;;;;7.77;6.57;;;7.60;99.90;;;;;;5050387;28;20448;-63
2021/11/03 07:25:38;;;;;;;10.43;6.20;;;7.60;99.90;;;;;;5050445;28;20460;-65
2021/11/03 07:28:05;;;;;;;7.10;5.90;;;7.70;99.90;;;;;;5049865;28;20517;-63
2021/11/03 07:30:36;;;;;;;7.27;5.07;;;7.80;99.90;;;;;;5050481;28;20452;-65
2021/11/03 07:33:05;;;;;;;6.60;5.80;;;7.90;99.90;;;;;;5050217;28;20806;-64
2021/11/03 07:35:34;;;;;;;6.40;5.80;;;8.00;99.90;;;;;;5050644;28;20468;-65
2021/11/03 07:38:01;;;;;;;7.67;5.40;;;8.10;99.90;;;;;;5049473;28;20458;-65
2021/11/03 07:40:32;;;;;;;8.13;6.00;;;8.20;99.90;;;;;;5050254;28;20531;-64
2021/11/03 07:43:01;;;;;;;7.00;5.47;;;8.20;99.90;;;;;;5049699;28;20440;-64
2021/11/03 07:45:30;;;;;;;6.10;5.20;;;8.20;99.90;;;;;;5050124;28;20503;-64
2021/11/03 07:47:58;;;;;;;6.93;4.97;;;8.30;99.90;;;;;;5049445;28;20494;-64
2021/11/03 07:50:29;;;;;;;4.80;4.30;;;8.30;99.90;;;;;;5049771;28;20444;-63
2021/11/03 07:52:56;;;;;;;3.50;3.10;;;8.30;99.90;;;;;;5049569;28;20495;-63
2021/11/03 07:55:23;;;;;;;3.60;3.07;;;8.40;99.90;;;;;;5050191;28;20579;-65
2021/11/03 07:57:50;;;;;;;4.10;2.40;;;8.50;99.90;;;;;;5048921;28;20443;-65
2021/11/03 08:00:23;;;;;;;4.07;2.40;;;8.50;99.90;;;;;;5049955;28;20536;-63
2021/11/03 08:02:49;;;;;;;5.80;2.80;;;8.50;99.90;;;;;;5049435;28;20440;-64
2021/11/03 08:05:16;;;;;;;2.93;1.90;;;8.60;99.90;;;;;;5049808;28;21084;-64
2021/11/03 08:07:45;;;;;;;2.53;1.80;;;8.60;99.90;;;;;;5048940;28;20826;-64
2021/11/03 08:10:14;;;;;;;5.00;3.40;;;8.80;99.90;;;;;;5048964;28;20455;-64
2021/11/03 08:12:42;;;;;;;6.93;3.63;;;8.80;99.90;;;;;;5048910;28;20495;-63
2021/11/03 08:15:10;;;;;;;4.33;2.60;;;8.80;99.90;;;;;;5049670;28;20981;-64
2021/11/03 08:17:38;;;;;;;3.33;2.53;;;8.90;99.90;;;;;;5048864;28;20458;-66
2021/11/03 08:20:09;;;;;;;3.57;2.80;;;8.90;99.90;;;;;;5049558;28;20447;-66
2021/11/03 08:22:36;;;;;;;5.33;2.10;;;8.90;99.90;;;;;;5049281;28;20437;-65
2021/11/03 08:25:05;;;;;;;2.87;1.70;;;8.90;99.90;;;;;;5049501;28;20468;-63
2021/11/03 08:27:32;;;;;;;2.53;1.70;;;9.00;99.90;;;;;;5048781;28;20446;-64
2021/11/03 08:29:59;;;;;;;2.87;1.63;;;9.10;99.90;;;;;;5049206;28;20439;-64
2021/11/03 08:32:30;;;;;;;3.90;1.63;;;9.20;99.90;;;;;;5048973;28;20568;-64
2021/11/03 08:34:57;;;;;;;4.37;1.80;;;9.30;99.90;;;;;;5049280;28;20466;-64
2021/11/03 08:37:27;;;;;;;2.60;1.37;;;9.40;99.90;;;;;;5048868;28;20491;-64
2021/11/03 08:39:56;;;;;;;2.30;1.67;;;9.50;99.90;;;;;;5049577;28;21014;-63
2021/11/03 08:42:24;;;;;;;4.10;1.90;;;9.60;99.90;;;;;;5049382;28;20451;-64
2021/11/03 08:44:52;;;;;;;2.80;2.00;;;9.60;99.90;;;;;;5049439;28;20486;-64
2021/11/03 08:47:19;;;;;;;4.13;2.30;;;9.70;99.90;;;;;;5048973;28;20479;-62
2021/11/03 08:49:46;;;;;;;3.30;1.90;;;9.80;99.90;;;;;;5049280;28;20444;-64
2021/11/03 08:52:13;;;;;;;3.60;1.73;;;9.90;99.90;;;;;;5049423;28;20515;-63
2021/11/03 08:54:45;;;;;;;3.40;1.80;;;10.00;99.90;;;;;;5049711;28;20483;-63
2021/11/03 08:57:12;;;;;;;4.10;2.07;;;10.10;99.90;;;;;;5049112;28;20494;-63
2021/11/03 08:59:40;;;;;;;2.77;1.73;;;10.10;99.90;;;;;;5049478;28;20459;-63
2021/11/03 09:02:08;;;;;;;3.37;1.50;;;10.10;99.90;;;;;;5051560;28;20440;-64
2021/11/03 09:04:35;;;;;;;2.20;1.50;;;10.10;99.90;;;;;;5053103;28;20463;-64
2021/11/03 09:07:03;;;;;;;3.50;1.80;;;10.10;99.90;;;;;;5052538;28;20819;-62
2021/11/03 09:09:31;;;;;;;4.90;2.30;;;10.10;99.90;;;;;;5048809;28;20867;-63
2021/11/03 09:11:58;;;;;;;3.73;2.03;;;10.10;99.90;;;;;;5052314;28;20515;-62
2021/11/03 09:14:25;;;;;;;4.43;1.60;;;10.20;99.90;;;;;;5052844;28;20909;-63
2021/11/03 09:16:53;;;;;;;3.00;1.43;;;10.20;99.90;;;;;;5050132;28;20535;-65
2021/11/03 09:19:20;;;;;;;3.60;1.87;;;10.30;99.90;;;;;;5052948;28;20457;-62
2021/11/03 09:21:47;;;;;;;5.23;1.97;;;10.20;99.90;;;;;;5055421;28;20435;-62
2021/11/03 09:24:14;;;;;;;4.60;1.67;;;10.30;99.90;;;;;;5066687;28;20827;-62
2021/11/03 09:26:42;;;;;;;3.30;1.60;;;10.60;99.90;;;;;;5049837;28;20546;-64
2021/11/03 09:29:10;;;;;;;2.90;1.27;;;10.80;99.90;;;;;;5050373;28;20448;-62
2021/11/03 09:31:37;;;;;;;2.73;1.40;;;11.10;99.90;;;;;;5050012;28;20482;-63
2021/11/03 09:34:05;;;;;;;4.33;1.67;;;11.50;99.90;;;;;;5046062;28;20458;-63
2021/11/03 09:36:33;;;;;;;2.70;1.37;;;11.80;99.90;;;;;;5048275;28;20963;-63
2021/11/03 09:39:00;;;;;;;2.77;1.60;;;12.00;99.90;;;;;;5049511;28;20475;-65
2021/11/03 09:41:31;;;;;;;4.00;1.50;;;12.40;99.90;;;;;;5049346;28;20454;-63
2021/11/03 09:44:00;;;;;;;2.70;1.30;;;12.60;99.90;;;;;;5047570;28;20933;-63
2021/11/03 09:46:30;;;;;;;6.00;1.40;;;12.70;99.90;;;;;;5045045;28;20526;-63
2021/11/03 09:49:22;;;;;;;3.50;1.90;;;12.80;99.90;;;;;;5049326;28;20443;-60
2021/11/03 09:51:53;;;;;;;2.70;1.47;;;12.90;99.90;;;;;;5055024;28;20548;-62
2021/11/03 09:54:24;;;;;;;3.40;1.60;;;12.90;99.90;;;;;;5046652;28;20479;-63
2021/11/03 09:56:56;;;;;;;3.57;1.73;;;13.00;99.90;;;;;;5045979;28;20977;-64
2021/11/03 09:59:32;;;;;;;3.80;1.60;;;13.00;99.90;;;;;;5050709;28;20447;-63
2021/11/03 10:02:06;;;;;;;3.83;1.50;;;12.90;99.90;;;;;;5047199;28;20817;-64
2021/11/03 10:05:10;;;;;;;3.67;1.37;;;12.90;99.90;;;;;;5045312;28;20886;-63
2021/11/03 10:07:48;;;;;;;3.97;1.47;;;12.80;99.90;;;;;;4999654;28;20459;-62
2021/11/03 10:10:24;;;;;;;4.07;1.30;;;12.80;99.90;;;;;;5044181;28;20448;-62
2021/11/03 10:12:51;;;;;;;2.70;1.67;;;12.60;99.90;;;;;;5047467;28;20472;-62
2021/11/03 10:15:21;;;;;;;2.57;1.90;;;12.30;99.90;;;;;;5046088;28;20472;-63
2021/11/03 10:18:11;;;;;;;4.83;1.90;;;12.00;99.90;;;;;;5049070;28;21033;-60
2021/11/03 10:20:43;;;;;;;2.83;1.50;;;11.70;99.90;;;;;;5050514;28;20455;-60
2021/11/03 10:23:20;;;;;;;2.63;1.20;;;11.60;99.90;;;;;;5049971;28;20538;-63
2021/11/03 10:25:55;;;;;;;3.33;1.70;;;11.40;99.90;;;;;;5049930;28;20470;-63
2021/11/03 10:28:38;;;;;;;2.03;1.43;;;11.60;99.90;;;;;;5043529;28;20954;-63
2021/11/03 10:31:18;;;;;;;2.27;1.43;;;11.70;99.90;;;;;;5042445;28;20455;-64
2021/11/03 10:33:46;;;;;;;3.07;1.90;;;11.80;99.90;;;;;;5044276;28;20490;-64
2021/11/03 10:36:19;;;;;;;2.67;1.40;;;11.90;99.90;;;;;;5042636;28;20467;-63
2021/11/03 10:38:53;;;;;;;3.20;1.50;;;12.00;99.90;;;;;;5042263;28;20449;-61
2021/11/03 10:41:25;;;;;;;2.73;1.50;;;12.20;99.90;;;;;;5044338;28;21080;-63
2021/11/03 10:44:07;;;;;;;2.27;1.30;;;12.30;99.90;;;;;;5049498;28;20520;-64
2021/11/03 10:46:40;;;;;;;4.10;1.63;;;12.20;99.90;;;;;;5047087;28;20471;-63
2021/11/03 10:49:29;;;;;;;3.30;1.60;;;12.20;99.90;;;;;;5050991;28;20490;-64
2021/11/03 10:52:18;;;;;;;4.43;2.30;;;12.30;99.90;;;;;;4988347;28;20479;-63
2021/11/03 10:54:49;;;;;;;3.57;1.80;;;12.30;99.90;;;;;;4989250;28;20536;-64
2021/11/03 10:57:22;;;;;;;2.53;1.57;;;12.30;99.90;;;;;;4988153;28;20620;-63
2021/11/03 10:59:54;;;;;;;3.17;1.93;;;12.30;99.90;;;;;;4989347;28;20447;-62
2021/11/03 11:02:25;;;;;;;5.20;1.70;;;12.40;99.90;;;;;;4987123;28;20447;-63
2021/11/03 11:04:53;;;;;;;2.27;1.43;;;12.50;99.90;;;;;;4981774;28;21000;-64
2021/11/03 11:07:28;;;;;;;2.93;1.47;;;12.60;99.90;;;;;;4987950;28;20531;-61
2021/11/03 11:10:00;;;;;;;5.03;3.20;;;12.40;99.90;;;;;;4987960;28;20453;-63
2021/11/03 11:12:29;;;;;;;3.33;2.13;;;12.10;99.90;;;;;;4988139;28;20471;-64
2021/11/03 11:14:59;;;;;;;3.60;2.10;;;12.00;99.90;;;;;;4988271;28;20550;-63
2021/11/03 11:17:31;;;;;;;3.97;1.93;;;11.80;99.90;;;;;;4988058;28;20458;-63
2021/11/03 11:20:12;;;;;;;4.47;2.20;;;11.70;99.90;;;;;;4988396;28;20501;-63
2021/11/03 11:22:54;;;;;;;3.53;1.90;;;11.60;99.90;;;;;;4988549;28;20964;-63
2021/11/03 11:25:26;;;;;;;3.90;3.07;;;11.40;99.90;;;;;;4987209;28;21048;-63
2021/11/03 11:28:03;;;;;;;4.30;2.60;;;11.30;99.90;;;;;;4987927;28;20443;-63
2021/11/03 11:30:39;;;;;;;4.27;2.70;;;11.20;99.90;;;;;;4988782;28;20501;-62
2021/11/03 11:33:13;;;;;;;4.00;2.40;;;11.10;99.90;;;;;;4988266;28;20501;-63
2021/11/03 11:35:49;;;;;;;11.57;3.77;;;11.00;99.90;;;;;;5007908;28;20482;-63
2021/11/03 11:38:26;;;;;;;4.23;3.10;;;11.00;99.90;;;;;;5049351;28;20975;-63
2021/11/03 11:40:58;;;;;;;8.47;3.20;;;10.90;99.90;;;;;;5049992;28;20444;-62
2021/11/03 11:43:33;;;;;;;5.73;3.60;;;10.90;99.90;;;;;;5049506;28;20535;-60
2021/11/03 11:46:04;;;;;;;6.20;3.27;;;10.90;99.90;;;;;;5049980;28;20558;-63
2021/11/03 11:48:39;;;;;;;6.33;3.30;;;10.80;99.90;;;;;;5048332;28;20464;-63
2021/11/03 11:51:11;;;;;;;5.33;2.97;;;10.80;99.90;;;;;;5050299;28;20831;-63
2021/11/03 11:54:02;;;;;;;7.57;3.30;;;10.80;99.90;;;;;;5050224;28;20526;-63
2021/11/03 11:56:34;;;;;;;5.20;2.90;;;10.90;99.90;;;;;;5049169;28;20448;-62
2021/11/03 11:59:07;;;;;;;5.60;4.13;;;11.10;99.90;;;;;;5049812;28;20440;-63
2021/11/03 12:01:41;;;;;;;6.23;2.87;;;11.10;99.90;;;;;;5049664;28;20428;-63
2021/11/03 12:04:31;;;;;;;7.93;4.20;;;11.20;99.90;;;;;;5049771;28;20444;-63
2021/11/03 12:07:22;;;;;;;6.00;5.40;;;11.00;99.90;;;;;;5048403;28;20432;-64
2021/11/03 12:10:27;;;;;;;5.43;4.70;;;10.90;99.90;;;;;;5049915;28;21103;-63
2021/11/03 12:13:22;;;;;;;7.77;5.57;;;11.00;99.90;;;;;;5047937;28;21047;-62
2021/11/03 12:16:10;;;;;;;5.97;4.80;;;11.10;99.90;;;;;;5049643;28;20801;-63
2021/11/03 12:18:52;;;;;;;9.63;8.30;;;11.30;99.90;;;;;;5049418;28;20523;-64
2021/11/03 12:21:36;;;;;;;16.03;10.90;;;11.40;99.90;;;;;;5047500;28;20448;-63
2021/11/03 12:24:24;;;;;;;8.03;4.30;;;11.30;99.90;;;;;;5047835;28;20829;-63
2021/11/03 12:26:51;;;;;;;6.50;4.00;;;11.20;99.90;;;;;;5046101;28;20470;-64
2021/11/03 12:29:42;;;;;;;4.73;3.87;;;11.00;99.90;;;;;;5047752;28;20452;-62
2021/11/03 12:32:25;;;;;;;9.67;4.67;;;11.00;99.90;;;;;;5047005;28;20930;-63
2021/11/03 12:35:00;;;;;;;6.43;3.70;;;11.00;99.90;;;;;;5045232;28;21001;-63
2021/11/03 12:37:32;;;;;;;5.83;4.23;;;11.10;99.90;;;;;;5043034;28;20530;-64
2021/11/03 12:40:16;;;;;;;3.90;2.97;;;11.20;99.90;;;;;;5047535;28;20982;-64
2021/11/03 12:42:53;;;;;;;4.47;3.50;;;11.50;99.90;;;;;;5046567;28;20443;-62
2021/11/03 12:45:27;;;;;;;5.20;3.30;;;11.70;99.90;;;;;;5043450;28;20920;-63
2021/11/03 12:47:59;;;;;;;5.63;3.00;;;11.60;99.90;;;;;;5047051;28;20463;-63
2021/11/03 12:50:29;;;;;;;3.20;2.20;;;11.60;99.90;;;;;;5047616;28;20437;-64
2021/11/03 12:53:10;;;;;;;6.00;2.73;;;11.60;99.90;;;;;;5047568;28;20567;-64
2021/11/03 12:55:46;;;;;;;3.20;2.03;;;11.50;99.90;;;;;;5050254;28;20483;-64
2021/11/03 12:58:32;;;;;;;3.13;2.47;;;11.50;99.90;;;;;;5057489;28;20546;-62
2021/11/03 13:01:04;;;;;;;2.73;2.20;;;11.50;99.90;;;;;;5046874;28;20458;-63
2021/11/03 13:03:33;;;;;;;7.83;2.60;;;11.40;99.90;;;;;;5047627;28;20447;-63
2021/11/03 13:06:02;;;;;;;5.87;2.70;;;11.30;99.90;;;;;;5048542;28;21069;-62